sensor_id;sensor_type;location;lat;lon;timestamp;temperature;humidity
2957;DHT22;1488;51.548;7.222;2023-03-14T00:01:51;20.70;64.20
2957;DHT22;1488;51.548;7.222;2023-03-14T00:04:18;20.70;64.20
2957;DHT22;1488;51.548;7.222;2023-03-14T00:06:45;20.70;64.10
2957;DHT22;1488;51.548;7.222;2023-03-14T00:09:15;20.70;64.10
2957;DHT22;1488;51.548;7.222;2023-03-14T00:11:42;20.70;64.20
2957;DHT22;1488;51.548;7.222;2023-03-14T00:14:10;20.70;64.20
2957;DHT22;1488;51.548;7.222;2023-03-14T00:16:37;20.70;64.10
2957;DHT22;1488;51.548;7.222;2023-03-14T00:19:04;20.70;64.10
2957;DHT22;1488;51.548;7.222;2023-03-14T00:21:30;20.70;64.10
2957;DHT22;1488;51.548;7.222;2023-03-14T00:23:57;20.70;64.00
2957;DHT22;1488;51.548;7.222;2023-03-14T00:26:25;20.70;64.00
2957;DHT22;1488;51.548;7.222;2023-03-14T00:28:52;20.70;64.00
2957;DHT22;1488;51.548;7.222;2023-03-14T00:31:21;20.70;64.00
2957;DHT22;1488;51.548;7.222;2023-03-14T00:33:47;20.70;64.00
2957;DHT22;1488;51.548;7.222;2023-03-14T00:36:16;20.70;64.00
2957;DHT22;1488;51.548;7.222;2023-03-14T00:38:45;20.60;63.80
2957;DHT22;1488;51.548;7.222;2023-03-14T00:41:15;20.70;64.00
2957;DHT22;1488;51.548;7.222;2023-03-14T00:43:42;20.60;63.80
2957;DHT22;1488;51.548;7.222;2023-03-14T00:46:10;20.60;63.80
2957;DHT22;1488;51.548;7.222;2023-03-14T00:48:38;20.60;63.70
2957;DHT22;1488;51.548;7.222;2023-03-14T00:51:06;20.60;63.80
2957;DHT22;1488;51.548;7.222;2023-03-14T00:53:35;20.60;63.70
2957;DHT22;1488;51.548;7.222;2023-03-14T00:56:04;20.60;63.70
2957;DHT22;1488;51.548;7.222;2023-03-14T00:58:31;20.60;63.80
2957;DHT22;1488;51.548;7.222;2023-03-14T01:00:58;20.60;63.60
2957;DHT22;1488;51.548;7.222;2023-03-14T01:03:25;20.60;63.70
2957;DHT22;1488;51.548;7.222;2023-03-14T01:05:53;20.70;63.80
2957;DHT22;1488;51.548;7.222;2023-03-14T01:08:20;20.60;63.70
2957;DHT22;1488;51.548;7.222;2023-03-14T01:10:47;20.60;63.70
2957;DHT22;1488;51.548;7.222;2023-03-14T01:13:13;20.60;63.70
2957;DHT22;1488;51.548;7.222;2023-03-14T01:15:40;20.60;63.60
2957;DHT22;1488;51.548;7.222;2023-03-14T01:18:07;20.60;63.60
2957;DHT22;1488;51.548;7.222;2023-03-14T01:20:34;20.80;63.80
2957;DHT22;1488;51.548;7.222;2023-03-14T01:23:04;20.60;63.60
2957;DHT22;1488;51.548;7.222;2023-03-14T01:25:31;20.60;63.60
2957;DHT22;1488;51.548;7.222;2023-03-14T01:27:58;20.70;63.70
2957;DHT22;1488;51.548;7.222;2023-03-14T01:30:26;20.60;63.60
2957;DHT22;1488;51.548;7.222;2023-03-14T01:32:53;20.50;63.40
2957;DHT22;1488;51.548;7.222;2023-03-14T01:35:19;20.50;63.40
2957;DHT22;1488;51.548;7.222;2023-03-14T01:37:46;20.60;63.60
2957;DHT22;1488;51.548;7.222;2023-03-14T01:40:14;20.50;63.40
2957;DHT22;1488;51.548;7.222;2023-03-14T01:42:46;20.60;64.40
2957;DHT22;1488;51.548;7.222;2023-03-14T01:46:05;20.50;63.40
2957;DHT22;1488;51.548;7.222;2023-03-14T01:48:42;20.50;63.40
2957;DHT22;1488;51.548;7.222;2023-03-14T01:51:13;20.60;63.60
2957;DHT22;1488;51.548;7.222;2023-03-14T01:53:43;20.70;63.70
2957;DHT22;1488;51.548;7.222;2023-03-14T01:56:14;20.50;63.40
2957;DHT22;1488;51.548;7.222;2023-03-14T01:58:43;20.50;63.40
2957;DHT22;1488;51.548;7.222;2023-03-14T02:01:15;20.50;63.50
2957;DHT22;1488;51.548;7.222;2023-03-14T02:03:47;20.50;63.40
2957;DHT22;1488;51.548;7.222;2023-03-14T02:06:19;20.50;63.40
2957;DHT22;1488;51.548;7.222;2023-03-14T02:08:46;20.40;63.30
2957;DHT22;1488;51.548;7.222;2023-03-14T02:11:17;20.50;63.40
2957;DHT22;1488;51.548;7.222;2023-03-14T02:13:44;20.40;63.30
2957;DHT22;1488;51.548;7.222;2023-03-14T02:16:12;20.40;63.30
2957;DHT22;1488;51.548;7.222;2023-03-14T02:18:40;20.40;63.80
2957;DHT22;1488;51.548;7.222;2023-03-14T02:21:12;20.40;63.30
2957;DHT22;1488;51.548;7.222;2023-03-14T02:23:47;20.40;63.30
2957;DHT22;1488;51.548;7.222;2023-03-14T02:26:22;20.40;63.30
2957;DHT22;1488;51.548;7.222;2023-03-14T02:28:52;20.40;63.30
2957;DHT22;1488;51.548;7.222;2023-03-14T02:31:20;20.40;63.20
2957;DHT22;1488;51.548;7.222;2023-03-14T02:33:48;20.40;63.20
2957;DHT22;1488;51.548;7.222;2023-03-14T02:36:17;20.40;63.20
2957;DHT22;1488;51.548;7.222;2023-03-14T02:38:47;20.40;63.20
2957;DHT22;1488;51.548;7.222;2023-03-14T02:41:17;20.40;63.20
2957;DHT22;1488;51.548;7.222;2023-03-14T02:43:44;20.40;63.20
2957;DHT22;1488;51.548;7.222;2023-03-14T02:46:13;20.40;63.20
2957;DHT22;1488;51.548;7.222;2023-03-14T02:48:45;20.40;63.20
2957;DHT22;1488;51.548;7.222;2023-03-14T02:51:14;20.40;63.20
2957;DHT22;1488;51.548;7.222;2023-03-14T02:53:41;20.40;63.20
2957;DHT22;1488;51.548;7.222;2023-03-14T02:56:08;20.30;63.10
2957;DHT22;1488;51.548;7.222;2023-03-14T02:58:36;20.30;63.00
2957;DHT22;1488;51.548;7.222;2023-03-14T03:01:04;20.30;63.10
2957;DHT22;1488;51.548;7.222;2023-03-14T03:03:32;20.40;63.10
2957;DHT22;1488;51.548;7.222;2023-03-14T03:05:59;20.40;63.10
2957;DHT22;1488;51.548;7.222;2023-03-14T03:08:27;20.30;63.00
2957;DHT22;1488;51.548;7.222;2023-03-14T03:10:55;20.30;63.00
2957;DHT22;1488;51.548;7.222;2023-03-14T03:13:23;20.30;63.00
2957;DHT22;1488;51.548;7.222;2023-03-14T03:15:49;20.30;63.00
2957;DHT22;1488;51.548;7.222;2023-03-14T03:18:17;20.30;63.00
2957;DHT22;1488;51.548;7.222;2023-03-14T03:20:45;20.30;63.00
2957;DHT22;1488;51.548;7.222;2023-03-14T03:23:12;20.30;63.00
2957;DHT22;1488;51.548;7.222;2023-03-14T03:25:39;20.30;62.90
2957;DHT22;1488;51.548;7.222;2023-03-14T03:28:05;20.30;62.90
2957;DHT22;1488;51.548;7.222;2023-03-14T03:30:36;20.30;62.90
2957;DHT22;1488;51.548;7.222;2023-03-14T03:33:03;20.30;62.90
2957;DHT22;1488;51.548;7.222;2023-03-14T03:35:30;20.30;62.90
2957;DHT22;1488;51.548;7.222;2023-03-14T03:37:58;20.30;63.00
2957;DHT22;1488;51.548;7.222;2023-03-14T03:40:26;20.30;62.90
2957;DHT22;1488;51.548;7.222;2023-03-14T03:42:52;20.30;62.90
2957;DHT22;1488;51.548;7.222;2023-03-14T03:45:19;20.30;62.90
2957;DHT22;1488;51.548;7.222;2023-03-14T03:47:46;20.30;62.80
2957;DHT22;1488;51.548;7.222;2023-03-14T03:50:13;20.30;62.80
2957;DHT22;1488;51.548;7.222;2023-03-14T03:52:41;20.30;62.80
2957;DHT22;1488;51.548;7.222;2023-03-14T03:55:10;20.30;62.90
2957;DHT22;1488;51.548;7.222;2023-03-14T03:57:36;20.30;62.80
2957;DHT22;1488;51.548;7.222;2023-03-14T04:00:04;20.30;62.80
2957;DHT22;1488;51.548;7.222;2023-03-14T04:02:32;20.30;62.80
2957;DHT22;1488;51.548;7.222;2023-03-14T04:04:58;20.30;62.80
2957;DHT22;1488;51.548;7.222;2023-03-14T04:07:25;20.30;62.80
2957;DHT22;1488;51.548;7.222;2023-03-14T04:09:52;20.30;62.80
2957;DHT22;1488;51.548;7.222;2023-03-14T04:12:21;20.30;62.80
2957;DHT22;1488;51.548;7.222;2023-03-14T04:14:48;20.30;62.80
2957;DHT22;1488;51.548;7.222;2023-03-14T04:17:15;20.40;62.80
2957;DHT22;1488;51.548;7.222;2023-03-14T04:19:41;20.30;63.70
2957;DHT22;1488;51.548;7.222;2023-03-14T04:22:08;20.30;62.80
2957;DHT22;1488;51.548;7.222;2023-03-14T04:24:35;20.20;62.60
2957;DHT22;1488;51.548;7.222;2023-03-14T04:27:02;20.20;62.60
2957;DHT22;1488;51.548;7.222;2023-03-14T04:29:30;20.20;62.60
2957;DHT22;1488;51.548;7.222;2023-03-14T04:31:57;20.20;62.60
2957;DHT22;1488;51.548;7.222;2023-03-14T04:34:24;20.20;62.60
2957;DHT22;1488;51.548;7.222;2023-03-14T04:36:51;20.40;62.80
2957;DHT22;1488;51.548;7.222;2023-03-14T04:39:18;20.20;62.60
2957;DHT22;1488;51.548;7.222;2023-03-14T04:41:45;20.20;62.60
2957;DHT22;1488;51.548;7.222;2023-03-14T04:44:12;20.40;62.80
2957;DHT22;1488;51.548;7.222;2023-03-14T04:46:40;20.20;62.50
2957;DHT22;1488;51.548;7.222;2023-03-14T04:49:07;20.20;62.50
2957;DHT22;1488;51.548;7.222;2023-03-14T04:51:34;20.20;62.50
2957;DHT22;1488;51.548;7.222;2023-03-14T04:54:00;20.20;62.60
2957;DHT22;1488;51.548;7.222;2023-03-14T04:56:27;20.30;62.70
2957;DHT22;1488;51.548;7.222;2023-03-14T04:59:18;20.20;62.50
2957;DHT22;1488;51.548;7.222;2023-03-14T05:01:46;20.20;62.50
2957;DHT22;1488;51.548;7.222;2023-03-14T05:04:15;20.20;62.50
2957;DHT22;1488;51.548;7.222;2023-03-14T05:06:42;20.20;62.50
2957;DHT22;1488;51.548;7.222;2023-03-14T05:09:08;20.30;62.70
2957;DHT22;1488;51.548;7.222;2023-03-14T05:11:35;20.20;62.50
2957;DHT22;1488;51.548;7.222;2023-03-14T05:14:02;20.20;62.50
2957;DHT22;1488;51.548;7.222;2023-03-14T05:16:29;20.10;62.40
2957;DHT22;1488;51.548;7.222;2023-03-14T05:18:57;20.10;62.40
2957;DHT22;1488;51.548;7.222;2023-03-14T05:21:25;20.10;62.40
2957;DHT22;1488;51.548;7.222;2023-03-14T05:23:51;20.20;62.50
2957;DHT22;1488;51.548;7.222;2023-03-14T05:26:18;20.10;62.30
2957;DHT22;1488;51.548;7.222;2023-03-14T05:28:45;20.20;62.40
2957;DHT22;1488;51.548;7.222;2023-03-14T05:31:12;20.10;62.30
2957;DHT22;1488;51.548;7.222;2023-03-14T05:33:39;20.10;62.30
2957;DHT22;1488;51.548;7.222;2023-03-14T05:36:08;20.20;62.40
2957;DHT22;1488;51.548;7.222;2023-03-14T05:38:35;20.10;62.30
2957;DHT22;1488;51.548;7.222;2023-03-14T05:41:02;20.10;62.30
2957;DHT22;1488;51.548;7.222;2023-03-14T05:43:29;20.10;62.30
2957;DHT22;1488;51.548;7.222;2023-03-14T05:45:56;20.10;62.30
2957;DHT22;1488;51.548;7.222;2023-03-14T05:48:22;20.10;62.30
2957;DHT22;1488;51.548;7.222;2023-03-14T05:50:54;20.10;62.30
2957;DHT22;1488;51.548;7.222;2023-03-14T05:53:23;20.10;62.30
2957;DHT22;1488;51.548;7.222;2023-03-14T05:55:51;20.10;62.30
2957;DHT22;1488;51.548;7.222;2023-03-14T05:58:18;20.10;62.30
2957;DHT22;1488;51.548;7.222;2023-03-14T06:00:45;20.10;62.30
2957;DHT22;1488;51.548;7.222;2023-03-14T06:03:11;20.10;62.30
2957;DHT22;1488;51.548;7.222;2023-03-14T06:05:38;20.10;62.20
2957;DHT22;1488;51.548;7.222;2023-03-14T06:08:05;20.10;62.30
2957;DHT22;1488;51.548;7.222;2023-03-14T06:10:34;20.10;62.20
2957;DHT22;1488;51.548;7.222;2023-03-14T06:13:01;20.10;62.30
2957;DHT22;1488;51.548;7.222;2023-03-14T06:15:28;20.10;62.10
2957;DHT22;1488;51.548;7.222;2023-03-14T06:17:55;20.20;62.30
2957;DHT22;1488;51.548;7.222;2023-03-14T06:20:22;20.10;62.20
2957;DHT22;1488;51.548;7.222;2023-03-14T06:22:49;20.10;62.10
2957;DHT22;1488;51.548;7.222;2023-03-14T06:25:16;20.10;62.10
2957;DHT22;1488;51.548;7.222;2023-03-14T06:27:44;20.10;62.20
2957;DHT22;1488;51.548;7.222;2023-03-14T06:30:11;20.10;62.20
2957;DHT22;1488;51.548;7.222;2023-03-14T06:32:38;20.10;62.10
2957;DHT22;1488;51.548;7.222;2023-03-14T06:35:05;20.10;62.20
2957;DHT22;1488;51.548;7.222;2023-03-14T06:37:32;20.10;62.20
2957;DHT22;1488;51.548;7.222;2023-03-14T06:39:59;20.10;62.20
2957;DHT22;1488;51.548;7.222;2023-03-14T06:42:26;20.10;62.20
2957;DHT22;1488;51.548;7.222;2023-03-14T06:44:55;20.10;62.20
2957;DHT22;1488;51.548;7.222;2023-03-14T06:47:21;20.30;62.40
2957;DHT22;1488;51.548;7.222;2023-03-14T06:49:48;20.10;62.10
2957;DHT22;1488;51.548;7.222;2023-03-14T06:52:15;20.10;62.10
2957;DHT22;1488;51.548;7.222;2023-03-14T06:54:42;20.10;62.90
2957;DHT22;1488;51.548;7.222;2023-03-14T06:57:09;20.20;62.30
2957;DHT22;1488;51.548;7.222;2023-03-14T06:59:36;20.10;62.10
2957;DHT22;1488;51.548;7.222;2023-03-14T07:02:04;20.20;62.30
2957;DHT22;1488;51.548;7.222;2023-03-14T07:04:30;20.30;62.40
2957;DHT22;1488;51.548;7.222;2023-03-14T07:06:57;20.10;62.20
2957;DHT22;1488;51.548;7.222;2023-03-14T07:09:24;20.10;62.20
2957;DHT22;1488;51.548;7.222;2023-03-14T07:11:53;20.10;62.10
2957;DHT22;1488;51.548;7.222;2023-03-14T07:14:20;20.10;62.20
2957;DHT22;1488;51.548;7.222;2023-03-14T07:16:47;20.10;62.20
2957;DHT22;1488;51.548;7.222;2023-03-14T07:19:15;20.20;62.30
2957;DHT22;1488;51.548;7.222;2023-03-14T07:21:42;20.20;62.10
2957;DHT22;1488;51.548;7.222;2023-03-14T07:24:09;20.20;62.20
2957;DHT22;1488;51.548;7.222;2023-03-14T07:26:36;20.20;62.40
2957;DHT22;1488;51.548;7.222;2023-03-14T07:29:03;20.20;62.30
2957;DHT22;1488;51.548;7.222;2023-03-14T07:31:29;20.20;62.30
2957;DHT22;1488;51.548;7.222;2023-03-14T07:33:57;20.40;62.40
2957;DHT22;1488;51.548;7.222;2023-03-14T07:36:25;20.20;62.30
2957;DHT22;1488;51.548;7.222;2023-03-14T07:38:52;20.20;61.90
2957;DHT22;1488;51.548;7.222;2023-03-14T07:41:19;20.20;62.10
2957;DHT22;1488;51.548;7.222;2023-03-14T07:43:46;20.20;62.30
2957;DHT22;1488;51.548;7.222;2023-03-14T07:46:13;20.40;62.50
2957;DHT22;1488;51.548;7.222;2023-03-14T07:48:40;20.20;62.30
2957;DHT22;1488;51.548;7.222;2023-03-14T07:51:07;20.20;62.30
2957;DHT22;1488;51.548;7.222;2023-03-14T07:53:35;20.30;62.30
2957;DHT22;1488;51.548;7.222;2023-03-14T07:56:04;20.20;62.30
2957;DHT22;1488;51.548;7.222;2023-03-14T07:58:30;20.20;62.40
2957;DHT22;1488;51.548;7.222;2023-03-14T08:00:58;20.30;62.60
2957;DHT22;1488;51.548;7.222;2023-03-14T08:03:25;20.20;62.30
2957;DHT22;1488;51.548;7.222;2023-03-14T08:05:52;20.20;62.50
2957;DHT22;1488;51.548;7.222;2023-03-14T08:08:19;20.30;62.70
2957;DHT22;1488;51.548;7.222;2023-03-14T08:10:47;20.30;62.60
2957;DHT22;1488;51.548;7.222;2023-03-14T08:13:14;20.30;62.50
2957;DHT22;1488;51.548;7.222;2023-03-14T08:15:41;20.30;62.40
2957;DHT22;1488;51.548;7.222;2023-03-14T08:18:08;20.20;63.20
2957;DHT22;1488;51.548;7.222;2023-03-14T08:20:41;20.40;63.90
2957;DHT22;1488;51.548;7.222;2023-03-14T08:23:08;20.40;62.80
2957;DHT22;1488;51.548;7.222;2023-03-14T08:25:35;20.30;62.80
2957;DHT22;1488;51.548;7.222;2023-03-14T08:31:34;20.30;62.40
2957;DHT22;1488;51.548;7.222;2023-03-14T08:34:03;20.30;62.40
2957;DHT22;1488;51.548;7.222;2023-03-14T08:36:31;20.30;62.50
2957;DHT22;1488;51.548;7.222;2023-03-14T08:38:59;20.30;62.70
2957;DHT22;1488;51.548;7.222;2023-03-14T08:41:39;20.30;62.50
2957;DHT22;1488;51.548;7.222;2023-03-14T08:44:08;20.30;62.40
2957;DHT22;1488;51.548;7.222;2023-03-14T08:46:38;20.30;62.40
2957;DHT22;1488;51.548;7.222;2023-03-14T08:49:04;20.30;62.60
2957;DHT22;1488;51.548;7.222;2023-03-14T08:51:31;20.30;62.70
2957;DHT22;1488;51.548;7.222;2023-03-14T08:53:59;20.40;62.60
2957;DHT22;1488;51.548;7.222;2023-03-14T08:56:26;20.30;63.00
2957;DHT22;1488;51.548;7.222;2023-03-14T08:58:54;20.30;62.70
2957;DHT22;1488;51.548;7.222;2023-03-14T09:01:21;20.30;62.70
2957;DHT22;1488;51.548;7.222;2023-03-14T09:03:52;20.40;62.70
2957;DHT22;1488;51.548;7.222;2023-03-14T09:06:19;20.40;62.60
2957;DHT22;1488;51.548;7.222;2023-03-14T09:08:46;20.40;62.70
2957;DHT22;1488;51.548;7.222;2023-03-14T09:11:14;20.40;62.60
2957;DHT22;1488;51.548;7.222;2023-03-14T09:13:41;20.40;62.70
2957;DHT22;1488;51.548;7.222;2023-03-14T09:16:08;20.40;62.90
2957;DHT22;1488;51.548;7.222;2023-03-14T09:18:35;20.40;62.70
2957;DHT22;1488;51.548;7.222;2023-03-14T09:21:04;20.40;62.70
2957;DHT22;1488;51.548;7.222;2023-03-14T09:23:31;20.40;62.70
2957;DHT22;1488;51.548;7.222;2023-03-14T09:25:59;20.40;62.60
2957;DHT22;1488;51.548;7.222;2023-03-14T09:28:27;20.40;62.30
2957;DHT22;1488;51.548;7.222;2023-03-14T09:30:54;20.40;62.10
2957;DHT22;1488;51.548;7.222;2023-03-14T09:33:21;20.40;62.20
2957;DHT22;1488;51.548;7.222;2023-03-14T09:35:49;20.40;62.10
2957;DHT22;1488;51.548;7.222;2023-03-14T09:38:17;20.40;62.10
2957;DHT22;1488;51.548;7.222;2023-03-14T09:40:47;20.40;62.30
2957;DHT22;1488;51.548;7.222;2023-03-14T09:43:15;20.40;62.20
2957;DHT22;1488;51.548;7.222;2023-03-14T09:45:42;20.40;62.40
2957;DHT22;1488;51.548;7.222;2023-03-14T09:48:15;20.40;62.60
2957;DHT22;1488;51.548;7.222;2023-03-14T09:50:49;20.40;62.90
2957;DHT22;1488;51.548;7.222;2023-03-14T09:53:19;20.40;62.80
2957;DHT22;1488;51.548;7.222;2023-03-14T09:55:48;20.40;62.80
2957;DHT22;1488;51.548;7.222;2023-03-14T09:58:19;20.40;63.00
2957;DHT22;1488;51.548;7.222;2023-03-14T10:00:49;20.40;63.40
2957;DHT22;1488;51.548;7.222;2023-03-14T10:03:23;20.40;63.90
2957;DHT22;1488;51.548;7.222;2023-03-14T10:05:52;20.40;64.30
2957;DHT22;1488;51.548;7.222;2023-03-14T10:08:20;20.40;65.80
2957;DHT22;1488;51.548;7.222;2023-03-14T10:10:47;20.40;64.90
2957;DHT22;1488;51.548;7.222;2023-03-14T10:13:17;20.40;64.80
2957;DHT22;1488;51.548;7.222;2023-03-14T10:15:50;20.40;64.90
2957;DHT22;1488;51.548;7.222;2023-03-14T10:18:18;20.50;65.40
2957;DHT22;1488;51.548;7.222;2023-03-14T10:20:46;20.40;65.10
2957;DHT22;1488;51.548;7.222;2023-03-14T10:23:24;20.60;65.00
2957;DHT22;1488;51.548;7.222;2023-03-14T10:26:05;20.40;65.00
2957;DHT22;1488;51.548;7.222;2023-03-14T10:28:34;20.40;65.50
2957;DHT22;1488;51.548;7.222;2023-03-14T10:31:04;20.40;65.60
2957;DHT22;1488;51.548;7.222;2023-03-14T10:33:32;20.40;65.40
2957;DHT22;1488;51.548;7.222;2023-03-14T10:36:01;20.50;65.50
2957;DHT22;1488;51.548;7.222;2023-03-14T10:38:30;20.40;65.50
2957;DHT22;1488;51.548;7.222;2023-03-14T10:40:59;20.40;65.40
2957;DHT22;1488;51.548;7.222;2023-03-14T10:43:28;20.30;65.30
2957;DHT22;1488;51.548;7.222;2023-03-14T10:45:59;20.30;65.20
2957;DHT22;1488;51.548;7.222;2023-03-14T10:48:31;20.30;65.20
2957;DHT22;1488;51.548;7.222;2023-03-14T10:51:04;20.40;65.20
2957;DHT22;1488;51.548;7.222;2023-03-14T10:53:43;20.40;65.20
2957;DHT22;1488;51.548;7.222;2023-03-14T10:56:13;20.30;65.00
2957;DHT22;1488;51.548;7.222;2023-03-14T10:58:42;20.30;65.00
2957;DHT22;1488;51.548;7.222;2023-03-14T11:01:28;20.30;64.90
2957;DHT22;1488;51.548;7.222;2023-03-14T11:04:03;20.40;65.10
2957;DHT22;1488;51.548;7.222;2023-03-14T11:06:36;20.30;64.90
2957;DHT22;1488;51.548;7.222;2023-03-14T11:09:14;20.30;64.80
2957;DHT22;1488;51.548;7.222;2023-03-14T11:11:47;20.30;64.90
2957;DHT22;1488;51.548;7.222;2023-03-14T11:14:23;20.50;65.00
2957;DHT22;1488;51.548;7.222;2023-03-14T11:16:56;20.30;64.70
2957;DHT22;1488;51.548;7.222;2023-03-14T11:19:41;20.30;64.70
2957;DHT22;1488;51.548;7.222;2023-03-14T11:22:21;20.30;64.70
2957;DHT22;1488;51.548;7.222;2023-03-14T11:27:41;20.30;64.60
2957;DHT22;1488;51.548;7.222;2023-03-14T11:30:17;20.30;64.70
2957;DHT22;1488;51.548;7.222;2023-03-14T11:32:46;20.30;64.50
2957;DHT22;1488;51.548;7.222;2023-03-14T11:35:17;20.30;64.50
2957;DHT22;1488;51.548;7.222;2023-03-14T11:37:47;20.30;64.50
2957;DHT22;1488;51.548;7.222;2023-03-14T11:40:21;20.30;64.60
2957;DHT22;1488;51.548;7.222;2023-03-14T11:42:54;20.30;64.40
2957;DHT22;1488;51.548;7.222;2023-03-14T11:45:27;20.30;64.40
2957;DHT22;1488;51.548;7.222;2023-03-14T11:48:06;20.30;64.40
2957;DHT22;1488;51.548;7.222;2023-03-14T11:50:36;20.30;64.40
2957;DHT22;1488;51.548;7.222;2023-03-14T11:53:06;20.30;64.30
2957;DHT22;1488;51.548;7.222;2023-03-14T11:55:39;20.30;64.30
2957;DHT22;1488;51.548;7.222;2023-03-14T11:58:13;20.30;64.20
2957;DHT22;1488;51.548;7.222;2023-03-14T12:00:42;20.30;64.30
2957;DHT22;1488;51.548;7.222;2023-03-14T12:03:17;20.30;64.20
2957;DHT22;1488;51.548;7.222;2023-03-14T12:05:54;20.30;64.10
2957;DHT22;1488;51.548;7.222;2023-03-14T12:08:45;20.30;64.10
2957;DHT22;1488;51.548;7.222;2023-03-14T12:11:21;20.30;64.00
2957;DHT22;1488;51.548;7.222;2023-03-14T12:13:51;20.30;64.10
2957;DHT22;1488;51.548;7.222;2023-03-14T12:16:32;20.30;64.10
2957;DHT22;1488;51.548;7.222;2023-03-14T12:19:15;20.40;64.20
2957;DHT22;1488;51.548;7.222;2023-03-14T12:21:53;20.30;64.00
2957;DHT22;1488;51.548;7.222;2023-03-14T12:24:24;20.40;64.30
2957;DHT22;1488;51.548;7.222;2023-03-14T12:26:57;20.30;64.10
2957;DHT22;1488;51.548;7.222;2023-03-14T12:29:24;20.40;64.00
2957;DHT22;1488;51.548;7.222;2023-03-14T12:32:09;20.30;63.90
2957;DHT22;1488;51.548;7.222;2023-03-14T12:34:39;20.30;63.90
2957;DHT22;1488;51.548;7.222;2023-03-14T12:37:18;20.30;63.80
2957;DHT22;1488;51.548;7.222;2023-03-14T12:39:56;20.30;63.30
2957;DHT22;1488;51.548;7.222;2023-03-14T12:42:40;20.30;63.50
2957;DHT22;1488;51.548;7.222;2023-03-14T12:45:24;20.30;63.70
2957;DHT22;1488;51.548;7.222;2023-03-14T12:48:06;20.30;63.90
2957;DHT22;1488;51.548;7.222;2023-03-14T12:50:38;20.40;63.60
2957;DHT22;1488;51.548;7.222;2023-03-14T12:56:24;20.40;63.80
2957;DHT22;1488;51.548;7.222;2023-03-14T12:59:15;20.30;63.30
2957;DHT22;1488;51.548;7.222;2023-03-14T13:01:52;20.30;63.50
2957;DHT22;1488;51.548;7.222;2023-03-14T13:04:27;20.30;63.30
2957;DHT22;1488;51.548;7.222;2023-03-14T13:06:55;20.30;62.80
2957;DHT22;1488;51.548;7.222;2023-03-14T13:12:29;20.20;62.50
2957;DHT22;1488;51.548;7.222;2023-03-14T13:15:00;20.20;63.20
2957;DHT22;1488;51.548;7.222;2023-03-14T13:17:33;20.30;63.20
2957;DHT22;1488;51.548;7.222;2023-03-14T13:20:03;20.30;63.10
2957;DHT22;1488;51.548;7.222;2023-03-14T13:22:33;20.30;63.40
2957;DHT22;1488;51.548;7.222;2023-03-14T13:25:03;20.30;63.40
2957;DHT22;1488;51.548;7.222;2023-03-14T13:27:33;20.30;63.50
2957;DHT22;1488;51.548;7.222;2023-03-14T13:30:23;20.30;63.40
2957;DHT22;1488;51.548;7.222;2023-03-14T13:32:51;20.30;63.30
2957;DHT22;1488;51.548;7.222;2023-03-14T13:35:21;20.30;63.30
2957;DHT22;1488;51.548;7.222;2023-03-14T13:37:54;20.30;63.40
2957;DHT22;1488;51.548;7.222;2023-03-14T13:40:26;20.40;63.60
2957;DHT22;1488;51.548;7.222;2023-03-14T13:43:04;20.30;63.50
2957;DHT22;1488;51.548;7.222;2023-03-14T13:45:44;20.30;63.50
2957;DHT22;1488;51.548;7.222;2023-03-14T13:48:12;20.30;63.40
2957;DHT22;1488;51.548;7.222;2023-03-14T13:50:46;20.30;63.40
2957;DHT22;1488;51.548;7.222;2023-03-14T13:53:15;20.30;63.40
2957;DHT22;1488;51.548;7.222;2023-03-14T13:55:42;20.30;63.40
2957;DHT22;1488;51.548;7.222;2023-03-14T13:58:19;20.40;63.80
2957;DHT22;1488;51.548;7.222;2023-03-14T14:00:57;20.40;63.40
2957;DHT22;1488;51.548;7.222;2023-03-14T14:03:25;20.50;63.40
2957;DHT22;1488;51.548;7.222;2023-03-14T14:05:55;20.40;63.10
2957;DHT22;1488;51.548;7.222;2023-03-14T14:08:22;20.40;63.90
2957;DHT22;1488;51.548;7.222;2023-03-14T14:10:49;20.40;62.90
2957;DHT22;1488;51.548;7.222;2023-03-14T14:13:20;20.50;63.00
2957;DHT22;1488;51.548;7.222;2023-03-14T14:15:50;20.40;62.80
2957;DHT22;1488;51.548;7.222;2023-03-14T14:18:22;20.40;63.00
2957;DHT22;1488;51.548;7.222;2023-03-14T14:20:51;20.40;63.10
2957;DHT22;1488;51.548;7.222;2023-03-14T14:23:19;20.40;62.90
2957;DHT22;1488;51.548;7.222;2023-03-14T14:25:51;20.40;63.00
2957;DHT22;1488;51.548;7.222;2023-03-14T14:28:24;20.40;62.90
2957;DHT22;1488;51.548;7.222;2023-03-14T14:31:04;20.40;62.80
2957;DHT22;1488;51.548;7.222;2023-03-14T14:33:40;20.40;62.60
2957;DHT22;1488;51.548;7.222;2023-03-14T14:36:15;20.40;62.50
2957;DHT22;1488;51.548;7.222;2023-03-14T14:38:49;20.40;62.80
2957;DHT22;1488;51.548;7.222;2023-03-14T14:41:16;20.50;63.10
2957;DHT22;1488;51.548;7.222;2023-03-14T14:43:44;20.40;62.80
2957;DHT22;1488;51.548;7.222;2023-03-14T14:46:17;20.40;62.70
2957;DHT22;1488;51.548;7.222;2023-03-14T14:48:45;20.50;62.40
2957;DHT22;1488;51.548;7.222;2023-03-14T14:51:23;20.50;62.60
2957;DHT22;1488;51.548;7.222;2023-03-14T14:54:04;20.40;62.70
2957;DHT22;1488;51.548;7.222;2023-03-14T14:56:36;20.50;63.10
2957;DHT22;1488;51.548;7.222;2023-03-14T14:59:05;20.50;63.20
2957;DHT22;1488;51.548;7.222;2023-03-14T15:01:35;20.40;62.90
2957;DHT22;1488;51.548;7.222;2023-03-14T15:04:10;20.60;62.90
2957;DHT22;1488;51.548;7.222;2023-03-14T15:06:38;20.60;62.60
2957;DHT22;1488;51.548;7.222;2023-03-14T15:09:05;20.50;62.30
2957;DHT22;1488;51.548;7.222;2023-03-14T15:11:32;20.40;62.20
2957;DHT22;1488;51.548;7.222;2023-03-14T15:13:59;20.40;62.30
2957;DHT22;1488;51.548;7.222;2023-03-14T15:16:28;20.40;62.30
2957;DHT22;1488;51.548;7.222;2023-03-14T15:18:57;20.50;62.20
2957;DHT22;1488;51.548;7.222;2023-03-14T15:21:27;20.50;62.40
2957;DHT22;1488;51.548;7.222;2023-03-14T15:23:54;20.40;62.20
2957;DHT22;1488;51.548;7.222;2023-03-14T15:26:24;20.40;62.10
2957;DHT22;1488;51.548;7.222;2023-03-14T15:28:51;20.60;62.00
2957;DHT22;1488;51.548;7.222;2023-03-14T15:31:20;20.50;61.90
2957;DHT22;1488;51.548;7.222;2023-03-14T15:33:47;20.50;62.10
2957;DHT22;1488;51.548;7.222;2023-03-14T15:36:20;20.40;61.90
2957;DHT22;1488;51.548;7.222;2023-03-14T15:38:49;20.60;62.30
2957;DHT22;1488;51.548;7.222;2023-03-14T15:41:16;20.40;61.90
2957;DHT22;1488;51.548;7.222;2023-03-14T15:43:43;20.40;62.50
2957;DHT22;1488;51.548;7.222;2023-03-14T15:46:10;20.60;62.00
2957;DHT22;1488;51.548;7.222;2023-03-14T15:48:39;20.40;61.80
2957;DHT22;1488;51.548;7.222;2023-03-14T15:51:06;20.40;61.80
2957;DHT22;1488;51.548;7.222;2023-03-14T15:53:33;20.50;62.20
2957;DHT22;1488;51.548;7.222;2023-03-14T15:56:04;20.40;62.30
2957;DHT22;1488;51.548;7.222;2023-03-14T15:58:31;20.40;62.50
2957;DHT22;1488;51.548;7.222;2023-03-14T16:00:59;20.40;62.60
2957;DHT22;1488;51.548;7.222;2023-03-14T16:03:26;20.40;62.70
2957;DHT22;1488;51.548;7.222;2023-03-14T16:05:53;20.40;62.80
2957;DHT22;1488;51.548;7.222;2023-03-14T16:08:20;20.60;62.90
2957;DHT22;1488;51.548;7.222;2023-03-14T16:10:47;20.40;62.60
2957;DHT22;1488;51.548;7.222;2023-03-14T16:13:16;20.40;62.60
2957;DHT22;1488;51.548;7.222;2023-03-14T16:15:52;20.40;62.80
2957;DHT22;1488;51.548;7.222;2023-03-14T16:18:19;20.40;62.60
2957;DHT22;1488;51.548;7.222;2023-03-14T16:20:54;20.40;62.50
2957;DHT22;1488;51.548;7.222;2023-03-14T16:23:21;20.40;62.60
2957;DHT22;1488;51.548;7.222;2023-03-14T16:25:48;20.40;62.60
2957;DHT22;1488;51.548;7.222;2023-03-14T16:28:16;20.30;62.60
2957;DHT22;1488;51.548;7.222;2023-03-14T16:30:43;20.40;62.60